This is the latest recevied weather packets stored in our database for station/object SP1BMW-13. If no packets are shown the sender has not sent any weather packets the latest 10 day(s).
| Time | Temp. | Humidity | Pressure | Rain* | Wind** | Luminosity | Snow |
|---|---|---|---|---|---|---|---|
| 1787834716 | 25.56° C | 38% | 1018.6 hPa | 0 mm | 1.79 m/s, 49° | 577 W/m² | - |
| 1787834656 | 25.56° C | 42% | 1018.6 hPa | 0 mm | 0.45 m/s, 121° | 576 W/m² | - |
| 1787834596 | 25.56° C | 40% | 1018.6 hPa | 0 mm | 1.34 m/s, 39° | 578 W/m² | - |
| 1787834536 | 26.11° C | 40% | 1018.6 hPa | 0 mm | 0.45 m/s, 33° | 584 W/m² | - |
| 1787834476 | 26.11° C | 38% | 1018.6 hPa | 0 mm | 1.79 m/s, 102° | 584 W/m² | - |
| 1787834415 | 25.56° C | 40% | 1018.6 hPa | 0 mm | 1.34 m/s, 34° | 584 W/m² | - |
| 1787834356 | 25.56° C | 39% | 1018.6 hPa | 0 mm | 0.89 m/s, 36° | 585 W/m² | - |
| 1787834296 | 25.56° C | 39% | 1018.5 hPa | 0 mm | 2.24 m/s, 23° | 588 W/m² | - |
| 1787834236 | 25.56° C | 40% | 1018.5 hPa | 0 mm | 0.89 m/s, 128° | 587 W/m² | - |
| 1787834176 | 25.56° C | 40% | 1018.6 hPa | 0 mm | 2.24 m/s, 20° | 591 W/m² | - |
| 1787834115 | 25.56° C | 40% | 1018.6 hPa | 0 mm | 1.34 m/s, 113° | 593 W/m² | - |
| 1787834057 | 25.56° C | 39% | 1018.7 hPa | 0 mm | 1.79 m/s, 48° | 593 W/m² | - |
| 1787833996 | 25.56° C | 38% | 1018.5 hPa | 0 mm | 4.92 m/s, 35° | 596 W/m² | - |
| 1787833935 | 25.56° C | 39% | 1018.5 hPa | 0 mm | 0.89 m/s, 72° | 596 W/m² | - |
| 1787833876 | 25.56° C | 38% | 1018.7 hPa | 0 mm | 2.68 m/s, 46° | 599 W/m² | - |
| 1787833816 | 25.56° C | 38% | 1018.6 hPa | 0 mm | 4.02 m/s, 61° | 597 W/m² | - |
| 1787833756 | 25.56° C | 38% | 1018.6 hPa | 0 mm | 2.24 m/s, 209° | 599 W/m² | - |
| 1787833696 | 25.56° C | 39% | 1018.6 hPa | 0 mm | 1.34 m/s, 23° | 597 W/m² | - |
| 1787833636 | 25.56° C | 39% | 1018.5 hPa | 0 mm | 0.89 m/s, 75° | 601 W/m² | - |
| 1787833576 | 25.56° C | 38% | 1018.5 hPa | 0 mm | 1.34 m/s, 39° | 603 W/m² | - |
| 1787833516 | 25.56° C | 39% | 1018.5 hPa | 0 mm | 1.79 m/s, 98° | 605 W/m² | - |
| 1787833456 | 25.56° C | 38% | 1018.5 hPa | 0 mm | 2.68 m/s, 48° | 605 W/m² | - |
| 1787833396 | 25.56° C | 37% | 1018.7 hPa | 0 mm | 2.68 m/s, 71° | 604 W/m² | - |
| 1787833336 | 25.56° C | 38% | 1018.8 hPa | 0 mm | 2.24 m/s, 23° | 605 W/m² | - |
| 1787833276 | 25.56° C | 40% | 1018.6 hPa | 0 mm | 1.79 m/s, 7° | 606 W/m² | - |
* Rain latest hour (hover to see other rain measurements)
** Current wind speed in m/s (hover to see current wind gust speed)